First Coast — WCR9075 — position and weather

sailwx.info

Track history (hours):
 
Tides and Currents Weather Stations Pressure Air Temp Water Temp Dewpoint Dewpoint Depression Visibility Wind Speed Wind Dir Waves Ship Positions

First Coast

Owner: DANN MARINE TOWING L C, CHESAPEAKE CITY, MD. More information available from US FCC via Universal Licensing System and Coast Guard Vessel Documentation Center.

Last reported at 2015-Jul-04 13:05 UTC. Time now 2015-Jul-04 13:43 UTC.
Position N 39°59' W 073°56'.

; draft 3.5 m.

Type: Tug. MMSI: 367024280.

Date/timePositionNaut miles runAvg speedWind from/ knotsBaromVisibWave heightAir tempDewpointWater temp
2015-Jul-04 13:05N 39°59' W 073°56'4 7.3
2015-Jul-04 12:28N 40°03' W 073°56'7 7.3
2015-Jul-04 11:33N 40°10' W 073°55'8 7.5
2015-Jul-04 10:33N 40°17' W 073°54'8 7.6
2015-Jul-04 09:33N 40°25' W 073°53'6 5.9
2015-Jul-04 08:33N 40°30' W 073°57'9 9.1
2015-Jul-04 07:33N 40°38' W 074°03'9 9.3
2015-Jul-04 06:33N 40°47' W 073°60'8 7.9
2015-Jul-04 05:33N 40°54' W 073°55'7 6.6
2015-Jul-04 04:33N 41°00' W 073°53'4 4.0
2015-Jul-04 03:27N 41°05' W 073°53'0 0.0
2015-Jul-04 02:33N 41°05' W 073°53'12 5.9
2015-Jul-04 00:33N 40°53' W 073°56'1010.3
2015-Jul-03 23:33N 40°44' W 074°01'7 6.9
2015-Jul-03 22:33N 40°39' W 074°07'3 3.4
2015-Jul-03 21:33N 40°38' W 074°12'1 0.1
2015-Jul-03 17:32N 40°38' W 074°12'5 5.1
2015-Jul-03 16:33N 40°39' W 074°06'10 9.6
2015-Jul-03 15:33N 40°47' W 073°60'13 3.7
2015-Jul-03 12:08N 40°59' W 073°54'6 6.6
2015-Jul-03 11:15N 40°53' W 073°56'4 5.8
2015-Jul-03 10:33N 40°50' W 073°58'5 4.9
2015-Jul-03 09:33N 40°45' W 074°01'4 3.8
2015-Jul-03 08:33N 40°42' W 074°02'4 3.7
2015-Jul-03 07:33N 40°38' W 074°03'4 4.2
2015-Jul-03 06:33N 40°34' W 074°02'4 4.2
2015-Jul-03 05:33N 40°31' W 073°58'4 3.9
2015-Jul-03 04:33N 40°27' W 073°55'3 3.1
2015-Jul-03 03:33N 40°24' W 073°55'6 6.0
2015-Jul-03 02:33N 40°18' W 073°55'7 6.3
2015-Jul-03 01:26N 40°11' W 073°55'6 6.5
2015-Jul-03 00:33N 40°06' W 073°56'7 6.6
2015-Jul-02 23:33N 39°59' W 073°57'7 6.7
2015-Jul-02 22:33N 39°52' W 073°58'6 6.6
2015-Jul-02 21:33N 39°46' W 073°58'6 6.1
2015-Jul-02 20:33N 39°40' W 074°02'6 6.0
2015-Jul-02 19:33N 39°35' W 074°06'6 5.8
2015-Jul-02 18:32N 39°31' W 074°11'32 6.4
2015-Jul-02 13:33N 39°05' W 074°35'7 7.2
2015-Jul-02 12:33N 38°59' W 074°40'7 7.3
2015-Jul-02 11:33N 38°51' W 074°42'15 7.3
2015-Jul-02 09:33N 38°37' W 074°48'7 7.0
2015-Jul-02 08:32N 38°31' W 074°50'7 6.8
2015-Jul-02 07:33N 38°24' W 074°53'245 6.9
2015-Jun-30 20:10N 34°30' W 076°22'5 7.4
2015-Jun-30 19:33N 34°27' W 076°26'11 5.2
2015-Jun-30 17:29N 34°33' W 076°37'6 6.5
2015-Jun-30 16:33N 34°38' W 076°40'5 4.6
2015-Jun-30 15:33N 34°43' W 076°42'1 0.5
2015-Jun-30 14:33N 34°43' W 076°42'0 0.1
2015-Jun-30 13:33N 34°43' W 076°42'0 0.0
2015-Jun-30 12:33N 34°43' W 076°42'0 0.1
2015-Jun-30 11:33N 34°43' W 076°42'2 1.7
2015-Jun-30 10:33N 34°42' W 076°40'9 9.5
2015-Jun-30 09:33N 34°33' W 076°39'209 7.1
2015-Jun-29 04:15N 38°01' W 076°15'7 9.6
2015-Jun-29 03:33N 38°07' W 076°16'104 8.0
2015-Jun-28 14:33N 39°44' W 075°30'5 5.2
2015-Jun-28 13:33N 39°48' W 075°25'0 0.0
2015-Jun-28 12:33N 39°48' W 075°25'0 0.0
2015-Jun-28 11:33N 39°48' W 075°25'0 0.0
2015-Jun-28 10:33N 39°48' W 075°25'0 0.0
2015-Jun-28 09:33N 39°48' W 075°25'0 0.0
2015-Jun-28 08:33N 39°48' W 075°25'0 0.0
2015-Jun-28 07:33N 39°48' W 075°25'3 2.6
2015-Jun-28 06:33N 39°47' W 075°28'  
Track history (hours):
 
Tides and Currents Weather Stations Pressure Air Temp Water Temp Dewpoint Dewpoint Depression Visibility Wind Speed Wind Dir Waves Ship Positions

First Coast

Owner: DANN MARINE TOWING L C, CHESAPEAKE CITY, MD. More information available from US FCC via Universal Licensing System and Coast Guard Vessel Documentation Center.

Last reported at 2015-Jul-04 13:05 UTC. Time now 2015-Jul-04 13:43 UTC.
Position N 39°59' W 073°56'.

; draft 3.5 m.

Type: Tug. MMSI: 367024280.

Date/timePositionNaut miles runAvg speedWind from/ knotsBaromVisibWave heightAir tempDewpointWater temp
2015-Jul-04 13:05N 39°59' W 073°56'4 7.3
2015-Jul-04 12:28N 40°03' W 073°56'7 7.3
2015-Jul-04 11:33N 40°10' W 073°55'8 7.5
2015-Jul-04 10:33N 40°17' W 073°54'8 7.6
2015-Jul-04 09:33N 40°25' W 073°53'6 5.9
2015-Jul-04 08:33N 40°30' W 073°57'9 9.1
2015-Jul-04 07:33N 40°38' W 074°03'9 9.3
2015-Jul-04 06:33N 40°47' W 073°60'8 7.9
2015-Jul-04 05:33N 40°54' W 073°55'7 6.6
2015-Jul-04 04:33N 41°00' W 073°53'4 4.0
2015-Jul-04 03:27N 41°05' W 073°53'0 0.0
2015-Jul-04 02:33N 41°05' W 073°53'12 5.9
2015-Jul-04 00:33N 40°53' W 073°56'1010.3
2015-Jul-03 23:33N 40°44' W 074°01'7 6.9
2015-Jul-03 22:33N 40°39' W 074°07'3 3.4
2015-Jul-03 21:33N 40°38' W 074°12'1 0.1
2015-Jul-03 17:32N 40°38' W 074°12'5 5.1
2015-Jul-03 16:33N 40°39' W 074°06'10 9.6
2015-Jul-03 15:33N 40°47' W 073°60'13 3.7
2015-Jul-03 12:08N 40°59' W 073°54'6 6.6
2015-Jul-03 11:15N 40°53' W 073°56'4 5.8
2015-Jul-03 10:33N 40°50' W 073°58'5 4.9
2015-Jul-03 09:33N 40°45' W 074°01'4 3.8
2015-Jul-03 08:33N 40°42' W 074°02'4 3.7
2015-Jul-03 07:33N 40°38' W 074°03'4 4.2
2015-Jul-03 06:33N 40°34' W 074°02'4 4.2
2015-Jul-03 05:33N 40°31' W 073°58'4 3.9
2015-Jul-03 04:33N 40°27' W 073°55'3 3.1
2015-Jul-03 03:33N 40°24' W 073°55'6 6.0
2015-Jul-03 02:33N 40°18' W 073°55'7 6.3
2015-Jul-03 01:26N 40°11' W 073°55'6 6.5
2015-Jul-03 00:33N 40°06' W 073°56'7 6.6
2015-Jul-02 23:33N 39°59' W 073°57'7 6.7
2015-Jul-02 22:33N 39°52' W 073°58'6 6.6
2015-Jul-02 21:33N 39°46' W 073°58'6 6.1
2015-Jul-02 20:33N 39°40' W 074°02'6 6.0
2015-Jul-02 19:33N 39°35' W 074°06'6 5.8
2015-Jul-02 18:32N 39°31' W 074°11'32 6.4
2015-Jul-02 13:33N 39°05' W 074°35'7 7.2
2015-Jul-02 12:33N 38°59' W 074°40'7 7.3
2015-Jul-02 11:33N 38°51' W 074°42'15 7.3
2015-Jul-02 09:33N 38°37' W 074°48'7 7.0
2015-Jul-02 08:32N 38°31' W 074°50'7 6.8
2015-Jul-02 07:33N 38°24' W 074°53'245 6.9
2015-Jun-30 20:10N 34°30' W 076°22'5 7.4
2015-Jun-30 19:33N 34°27' W 076°26'11 5.2
2015-Jun-30 17:29N 34°33' W 076°37'6 6.5
2015-Jun-30 16:33N 34°38' W 076°40'5 4.6
2015-Jun-30 15:33N 34°43' W 076°42'1 0.5
2015-Jun-30 14:33N 34°43' W 076°42'0 0.1
2015-Jun-30 13:33N 34°43' W 076°42'0 0.0
2015-Jun-30 12:33N 34°43' W 076°42'0 0.1
2015-Jun-30 11:33N 34°43' W 076°42'2 1.7
2015-Jun-30 10:33N 34°42' W 076°40'9 9.5
2015-Jun-30 09:33N 34°33' W 076°39'209 7.1
2015-Jun-29 04:15N 38°01' W 076°15'7 9.6
2015-Jun-29 03:33N 38°07' W 076°16'104 8.0
2015-Jun-28 14:33N 39°44' W 075°30'5 5.2
2015-Jun-28 13:33N 39°48' W 075°25'0 0.0
2015-Jun-28 12:33N 39°48' W 075°25'0 0.0
2015-Jun-28 11:33N 39°48' W 075°25'0 0.0
2015-Jun-28 10:33N 39°48' W 075°25'0 0.0
2015-Jun-28 09:33N 39°48' W 075°25'0 0.0
2015-Jun-28 08:33N 39°48' W 075°25'0 0.0
2015-Jun-28 07:33N 39°48' W 075°25'3 2.6
2015-Jun-28 06:33N 39°47' W 075°28'  

Dump ship's entire track history